createdAt,value
2023-01-02T00:02:19.195Z,99.42
2023-01-02T00:04:46.478Z,97.71
2023-01-02T00:07:13.657Z,96.95
2023-01-02T00:09:40.824Z,96.28
2023-01-02T00:12:08.061Z,94.77
2023-01-02T00:14:35.367Z,95.31
2023-01-02T00:17:02.570Z,96.37
2023-01-02T00:19:29.836Z,96.83
2023-01-02T00:21:57.132Z,97.51
2023-01-02T00:24:24.526Z,98.61
2023-01-02T00:26:51.786Z,99.40
2023-01-02T00:29:19.039Z,99.33
2023-01-02T00:31:46.325Z,98.68
2023-01-02T00:34:13.684Z,97.65
2023-01-02T00:36:40.869Z,96.59
2023-01-02T00:39:08.131Z,97.72
2023-01-02T00:41:35.483Z,97.23
2023-01-02T00:44:02.827Z,96.88
2023-01-02T00:46:30.239Z,96.79
2023-01-02T00:48:57.448Z,96.53
2023-01-02T00:51:24.652Z,96.38
2023-01-02T00:53:52.039Z,96.06
2023-01-02T00:56:19.265Z,96.63
2023-01-02T00:58:47.357Z,97.52
2023-01-02T01:01:15.046Z,97.09
2023-01-02T01:03:43.500Z,96.63
2023-01-02T01:06:11.465Z,96.75
2023-01-02T01:08:39.137Z,96.21
2023-01-02T01:11:12.264Z,96.11
2023-01-02T01:13:39.855Z,96.30
2023-01-02T01:16:13.226Z,96.49
2023-01-02T01:18:40.952Z,97.59
2023-01-02T01:21:11.885Z,96.29
2023-01-02T01:23:39.511Z,97.46
2023-01-02T01:26:10.217Z,98.91
2023-01-02T01:28:40.276Z,99.21
2023-01-02T01:31:10.836Z,98.95
2023-01-02T01:33:39.491Z,98.53
2023-01-02T01:36:09.473Z,98.48
2023-01-02T01:38:36.852Z,97.84
2023-01-02T01:41:05.624Z,96.07
2023-01-02T01:43:44.641Z,98.26
2023-01-02T01:46:41.165Z,98.25
2023-01-02T01:49:34.649Z,98.14
2023-01-02T01:52:11.241Z,98.12
2023-01-02T01:54:47.073Z,98.22
2023-01-02T01:57:41.241Z,98.16
2023-01-02T02:00:09.333Z,97.93
2023-01-02T02:02:40.007Z,98.42
2023-01-02T02:05:09.537Z,98.48
2023-01-02T02:07:42.576Z,98.06
2023-01-02T02:10:11.382Z,97.92
2023-01-02T02:12:38.593Z,98.05
2023-01-02T02:15:09.721Z,97.73
2023-01-02T02:17:43.748Z,97.56
2023-01-02T02:20:19.106Z,97.64
2023-01-02T02:23:09.547Z,98.30
2023-01-02T02:26:04.529Z,98.17
2023-01-02T02:28:43.777Z,98.61
2023-01-02T02:31:17.186Z,98.42
2023-01-02T02:33:46.776Z,98.30
2023-01-02T02:36:32.004Z,97.82
2023-01-02T02:39:20.973Z,99.09
2023-01-02T02:42:03.049Z,98.98
2023-01-02T02:44:57.564Z,98.90
2023-01-02T02:47:34.460Z,99.00
2023-01-02T02:50:26.392Z,98.99
2023-01-02T02:53:09.205Z,98.83
2023-01-02T02:55:44.086Z,98.61
2023-01-02T02:58:15.000Z,98.66
2023-01-02T03:00:42.365Z,98.79
2023-01-02T03:03:21.628Z,98.51
2023-01-02T03:05:59.446Z,97.57
2023-01-02T03:08:35.471Z,98.06
2023-01-02T03:11:03.834Z,97.81
2023-01-02T03:14:06.688Z,97.91
2023-01-02T03:16:40.789Z,97.73
2023-01-02T03:19:50.417Z,97.71
2023-01-02T03:22:21.755Z,98.17
2023-01-02T03:24:52.264Z,98.37
2023-01-02T03:27:24.795Z,97.88
2023-01-02T03:30:08.961Z,98.09
2023-01-02T03:32:49.497Z,97.74
2023-01-02T03:35:22.743Z,97.49
2023-01-02T03:37:54.596Z,97.40
2023-01-02T03:40:45.630Z,97.92
2023-01-02T03:43:21.563Z,99.03
2023-01-02T03:45:56.036Z,99.37
2023-01-02T03:48:45.296Z,99.29
2023-01-02T03:51:12.722Z,98.85
2023-01-02T03:53:41.131Z,99.02
2023-01-02T03:56:23.619Z,98.93
2023-01-02T03:59:01.680Z,98.51
2023-01-02T04:01:49.611Z,98.16
2023-01-02T04:04:29.278Z,98.43
2023-01-02T04:07:04.627Z,98.06
2023-01-02T04:09:34.589Z,97.72
2023-01-02T04:12:08.620Z,98.04
2023-01-02T04:14:44.794Z,98.31
2023-01-02T04:17:14.884Z,98.38
2023-01-02T04:19:48.913Z,97.97
2023-01-02T04:22:28.529Z,97.42
2023-01-02T04:25:06.207Z,97.65
2023-01-02T04:27:38.254Z,97.95
2023-01-02T04:30:06.069Z,98.10
2023-01-02T04:32:38.438Z,98.23
2023-01-02T04:35:09.461Z,97.93
2023-01-02T04:37:39.600Z,97.65
2023-01-02T04:40:17.453Z,97.57
2023-01-02T04:42:45.782Z,97.77
2023-01-02T04:45:13.371Z,97.30
2023-01-02T04:47:40.878Z,97.25
2023-01-02T04:50:09.119Z,96.79
2023-01-02T04:52:37.530Z,96.81
2023-01-02T04:55:08.441Z,97.23
2023-01-02T04:57:36.772Z,97.66
2023-01-02T05:00:05.836Z,97.85
2023-01-02T05:02:38.200Z,97.78
2023-01-02T05:05:07.337Z,97.82
2023-01-02T05:07:35.885Z,97.75
2023-01-02T05:10:03.699Z,97.65
2023-01-02T05:12:34.460Z,97.73
2023-01-02T05:15:02.939Z,97.56
2023-01-02T05:17:37.991Z,97.08
2023-01-02T05:20:07.555Z,96.99
2023-01-02T05:22:53.729Z,96.83
2023-01-02T05:25:20.978Z,96.89
2023-01-02T05:27:51.509Z,97.07
2023-01-02T05:30:18.725Z,97.65
2023-01-02T05:32:45.953Z,97.31
2023-01-02T05:35:13.267Z,97.55
2023-01-02T05:37:40.533Z,97.26
2023-01-02T05:40:08.646Z,97.26
2023-01-02T05:42:35.884Z,97.26
2023-01-02T05:45:04.000Z,97.34
2023-01-02T05:47:31.380Z,97.53
2023-01-02T05:49:58.563Z,97.79
2023-01-02T05:52:25.805Z,98.29
2023-01-02T05:54:52.985Z,97.95
2023-01-02T05:57:20.225Z,97.62
2023-01-02T05:59:47.483Z,97.64
2023-01-02T06:02:14.781Z,97.23
2023-01-02T06:04:42.094Z,97.33
2023-01-02T06:07:09.526Z,96.49
2023-01-02T06:09:36.741Z,96.67
2023-01-02T06:12:04.300Z,96.31
2023-01-02T06:14:31.528Z,97.82
2023-01-02T06:16:58.869Z,97.42
2023-01-02T06:19:26.220Z,97.50
2023-01-02T06:21:53.537Z,98.74
2023-01-02T06:24:20.806Z,98.40
2023-01-02T06:26:48.025Z,98.34
2023-01-02T06:29:15.470Z,98.29
2023-01-02T06:31:47.778Z,97.82
2023-01-02T06:34:18.592Z,97.50
2023-01-02T06:36:45.801Z,97.07
2023-01-02T06:39:13.069Z,97.21
2023-01-02T06:41:40.322Z,96.12
2023-01-02T06:44:12.564Z,96.20
2023-01-02T06:46:39.861Z,97.09
2023-01-02T06:49:07.182Z,98.00
2023-01-02T06:51:34.470Z,97.62
2023-01-02T06:54:01.713Z,98.40
2023-01-02T06:56:29.532Z,99.10
2023-01-02T06:58:58.338Z,99.39
2023-01-02T07:01:25.683Z,98.56
2023-01-02T07:03:52.972Z,99.50
2023-01-02T07:06:21.957Z,98.96
2023-01-02T07:08:49.661Z,98.64
2023-01-02T07:11:23.335Z,99.13
2023-01-02T07:13:52.293Z,99.45
2023-01-02T07:16:21.093Z,99.78
2023-01-02T07:18:48.853Z,98.66
2023-01-02T07:21:18.277Z,98.94
2023-01-02T07:23:46.161Z,99.49
2023-01-02T07:26:13.803Z,99.40
2023-01-02T07:28:41.531Z,98.96
2023-01-02T07:31:12.746Z,99.26
2023-01-02T07:33:42.259Z,99.13
2023-01-02T07:36:15.388Z,97.98
2023-01-02T07:38:43.076Z,98.43
2023-01-02T07:41:18.887Z,98.36
2023-01-02T07:43:47.130Z,98.97
2023-01-02T07:46:15.966Z,98.55
2023-01-02T07:48:43.577Z,98.60
2023-01-02T07:51:11.845Z,98.87
2023-01-02T07:53:39.657Z,98.99
2023-01-02T07:56:08.321Z,99.22
2023-01-02T07:58:36.441Z,99.23
2023-01-02T08:01:09.586Z,99.10
2023-01-02T08:03:37.367Z,99.01
2023-01-02T08:06:09.963Z,98.68
2023-01-02T08:08:37.589Z,98.49
2023-01-02T08:11:10.529Z,98.10
2023-01-02T08:13:37.828Z,97.10
2023-01-02T08:16:09.769Z,97.04
2023-01-02T08:18:37.687Z,96.29
2023-01-02T08:21:05.397Z,96.26
2023-01-02T08:23:33.148Z,95.32
2023-01-02T08:26:01.512Z,94.63
2023-01-02T08:28:29.309Z,93.49
2023-01-02T08:30:56.902Z,92.56
2023-01-02T08:33:24.349Z,91.85
2023-01-02T08:35:51.978Z,92.22
2023-01-02T08:38:19.829Z,91.88
2023-01-02T08:40:47.081Z,91.46
2023-01-02T08:43:16.189Z,90.79
2023-01-02T08:45:43.701Z,90.51
2023-01-02T08:48:20.201Z,89.75
2023-01-02T08:50:50.127Z,88.92
2023-01-02T08:53:18.089Z,88.33
2023-01-02T08:55:45.720Z,87.64
2023-01-02T08:58:13.074Z,86.88
2023-01-02T09:00:40.387Z,86.72
2023-01-02T09:03:07.814Z,85.66
2023-01-02T09:05:35.181Z,85.40
2023-01-02T09:08:02.648Z,86.59
2023-01-02T09:10:29.865Z,86.39
2023-01-02T09:12:58.762Z,86.28
2023-01-02T09:15:26.130Z,85.14
2023-01-02T09:17:53.478Z,84.15
2023-01-02T09:20:20.720Z,83.25
2023-01-02T09:22:48.026Z,83.66
2023-01-02T09:25:18.966Z,84.10
2023-01-02T09:27:51.688Z,82.57
2023-01-02T09:30:19.218Z,81.96
2023-01-02T09:32:49.073Z,81.89
2023-01-02T09:35:16.564Z,81.25
2023-01-02T09:37:44.516Z,82.03
2023-01-02T09:40:14.505Z,81.02
2023-01-02T09:42:42.826Z,81.45
2023-01-02T09:45:10.883Z,81.84
2023-01-02T09:47:40.382Z,80.80
2023-01-02T09:50:29.415Z,80.40
2023-01-02T09:53:00.122Z,79.70
2023-01-02T09:55:38.326Z,80.37
2023-01-02T09:58:21.539Z,79.90
2023-01-02T10:00:50.885Z,79.34
2023-01-02T10:03:31.707Z,78.87
2023-01-02T10:06:02.183Z,78.32
2023-01-02T10:09:02.144Z,78.58
2023-01-02T10:11:53.727Z,78.55
2023-01-02T10:14:37.401Z,78.37
2023-01-02T10:17:12.842Z,79.18
2023-01-02T10:20:01.707Z,78.99
2023-01-02T10:22:36.484Z,78.68
2023-01-02T10:25:10.123Z,77.84
2023-01-02T10:27:43.506Z,77.73
2023-01-02T10:30:19.244Z,77.39
2023-01-02T10:33:05.413Z,77.06
2023-01-02T10:35:57.197Z,76.93
2023-01-02T10:38:36.746Z,75.96
2023-01-02T10:41:04.919Z,76.23
2023-01-02T10:43:35.037Z,76.06
2023-01-02T10:46:03.665Z,75.70
2023-01-02T10:48:35.221Z,75.67
2023-01-02T10:51:06.604Z,75.47
2023-01-02T10:53:39.726Z,74.73
2023-01-02T10:56:18.770Z,75.33
2023-01-02T10:58:51.279Z,75.13
2023-01-02T11:01:21.381Z,75.08
2023-01-02T11:04:10.015Z,75.36
2023-01-02T11:06:49.971Z,74.46
2023-01-02T11:09:27.267Z,74.94
2023-01-02T11:11:59.210Z,74.91
2023-01-02T11:14:33.791Z,74.77
2023-01-02T11:17:23.755Z,75.09
2023-01-02T11:19:54.768Z,74.94
2023-01-02T11:22:35.614Z,74.80
2023-01-02T11:25:13.207Z,74.33
2023-01-02T11:27:44.711Z,74.15
2023-01-02T11:30:29.570Z,73.87
2023-01-02T11:33:19.406Z,74.32
2023-01-02T11:35:48.020Z,74.41
2023-01-02T11:38:29.629Z,73.60
2023-01-02T11:41:00.649Z,74.21
2023-01-02T11:43:54.984Z,74.56
2023-01-02T11:46:26.446Z,73.64
2023-01-02T11:48:59.168Z,74.39
2023-01-02T11:51:29.107Z,74.62
2023-01-02T11:54:00.696Z,74.36
2023-01-02T11:56:33.636Z,74.10
2023-01-02T11:59:26.673Z,73.73
2023-01-02T12:02:05.131Z,74.09
2023-01-02T12:04:32.733Z,72.97
2023-01-02T12:07:20.189Z,73.77
2023-01-02T12:09:53.998Z,73.71
2023-01-02T12:12:45.374Z,73.96
2023-01-02T12:15:24.418Z,73.19
2023-01-02T12:18:15.254Z,73.45
2023-01-02T12:21:06.927Z,72.74
2023-01-02T12:23:42.054Z,72.98
2023-01-02T12:26:14.106Z,73.02
2023-01-02T12:29:46.815Z,72.17
2023-01-02T12:32:11.348Z,72.47
2023-01-02T12:35:09.169Z,72.44
2023-01-02T12:37:47.044Z,72.63
2023-01-02T12:40:39.675Z,72.50
2023-01-02T12:43:28.236Z,72.12
2023-01-02T12:46:21.675Z,72.62
2023-01-02T12:49:22.831Z,73.03
2023-01-02T12:51:49.989Z,72.71
2023-01-02T12:54:48.144Z,72.81
2023-01-02T12:57:34.063Z,72.54
2023-01-02T13:00:16.682Z,73.16
2023-01-02T13:02:59.742Z,73.37
2023-01-02T13:05:43.928Z,74.12
2023-01-02T13:08:29.821Z,74.22
2023-01-02T13:11:00.543Z,74.28
2023-01-02T13:13:33.591Z,74.01
2023-01-02T13:16:22.656Z,73.55
2023-01-02T13:19:12.644Z,73.62
2023-01-02T13:21:56.586Z,73.38
2023-01-02T13:24:26.226Z,72.64
2023-01-02T13:26:56.658Z,71.96
2023-01-02T13:29:30.116Z,71.93
2023-01-02T13:31:57.762Z,72.01
2023-01-02T13:34:29.524Z,72.68
2023-01-02T13:37:06.980Z,72.55
2023-01-02T13:39:48.734Z,72.91
2023-01-02T13:42:52.675Z,72.99
2023-01-02T13:45:50.066Z,73.71
2023-01-02T13:48:29.250Z,74.12
2023-01-02T13:51:17.730Z,74.61
2023-01-02T13:53:47.483Z,74.85
2023-01-02T13:56:15.580Z,75.28
2023-01-02T13:58:59.404Z,75.25
2023-01-02T14:01:31.896Z,75.59
2023-01-02T14:04:08.150Z,75.90
2023-01-02T14:06:40.690Z,76.53
2023-01-02T14:09:11.912Z,76.51
2023-01-02T14:11:55.449Z,76.28
2023-01-02T14:14:33.286Z,76.64
2023-01-02T14:17:27.327Z,77.04
2023-01-02T14:20:30.978Z,77.54
2023-01-02T14:23:04.490Z,77.33
2023-01-02T14:25:49.366Z,77.77
2023-01-02T14:28:32.455Z,78.62
2023-01-02T14:31:14.766Z,79.31
2023-01-02T14:33:42.302Z,79.98
2023-01-02T14:36:13.252Z,80.71
2023-01-02T14:38:50.910Z,81.12
2023-01-02T14:42:10.836Z,81.60
2023-01-02T14:44:46.609Z,81.88
2023-01-02T14:47:18.788Z,82.61
2023-01-02T14:49:56.090Z,82.85
2023-01-02T14:52:47.829Z,83.79
2023-01-02T14:55:22.890Z,84.36
2023-01-02T14:57:52.825Z,84.94
2023-01-02T15:00:38.197Z,85.68
2023-01-02T15:03:23.561Z,86.34
2023-01-02T15:05:58.727Z,87.14
2023-01-02T15:08:39.965Z,86.22
2023-01-02T15:11:39.345Z,87.24
2023-01-02T15:14:10.000Z,87.29
2023-01-02T15:16:45.895Z,86.98
2023-01-02T15:19:27.732Z,87.86
2023-01-02T15:21:55.516Z,89.23
2023-01-02T15:24:26.185Z,89.09
2023-01-02T15:26:53.943Z,89.49
2023-01-02T15:29:25.926Z,88.83
2023-01-02T15:31:54.563Z,89.88
2023-01-02T15:34:27.489Z,90.39
2023-01-02T15:36:55.938Z,90.85
2023-01-02T15:39:32.252Z,91.01
2023-01-02T15:42:00.134Z,91.10
2023-01-02T15:44:50.609Z,90.84
2023-01-02T15:47:25.475Z,91.32
2023-01-02T15:49:56.522Z,90.42
2023-01-02T15:52:31.235Z,91.23
2023-01-02T15:54:59.192Z,91.14
2023-01-02T15:57:31.965Z,91.22
2023-01-02T16:00:01.007Z,91.53
2023-01-02T16:02:35.811Z,91.66
2023-01-02T16:05:12.793Z,91.76
2023-01-02T16:07:41.271Z,93.75
2023-01-02T16:10:19.423Z,94.20
2023-01-02T16:12:55.169Z,95.45
2023-01-02T16:15:26.838Z,94.11
2023-01-02T16:17:56.092Z,92.21
2023-01-02T16:20:25.633Z,93.08
2023-01-02T16:23:04.624Z,92.64
2023-01-02T16:25:43.078Z,92.81
2023-01-02T16:28:36.032Z,93.15
2023-01-02T16:31:07.388Z,93.41
2023-01-02T16:33:34.799Z,94.53
2023-01-02T16:36:05.041Z,95.88
2023-01-02T16:38:50.308Z,95.25
2023-01-02T16:41:45.039Z,96.13
2023-01-02T16:44:16.427Z,94.86
2023-01-02T16:46:46.157Z,95.64
2023-01-02T16:49:16.918Z,95.84
2023-01-02T16:51:46.422Z,96.26
2023-01-02T16:54:15.441Z,95.92
2023-01-02T16:56:42.759Z,93.99
2023-01-02T16:59:10.168Z,94.25
2023-01-02T17:01:37.808Z,93.32
2023-01-02T17:04:05.308Z,94.47
2023-01-02T17:06:32.612Z,93.92
2023-01-02T17:08:59.873Z,96.27
2023-01-02T17:11:27.272Z,92.48
2023-01-02T17:13:54.912Z,93.36
2023-01-02T17:16:22.215Z,92.63
2023-01-02T17:18:49.511Z,92.41
2023-01-02T17:21:16.761Z,95.61
2023-01-02T17:23:44.085Z,93.54
2023-01-02T17:26:11.359Z,95.22
2023-01-02T17:28:38.687Z,95.22
2023-01-02T17:31:05.957Z,95.60
2023-01-02T17:33:33.210Z,96.16
2023-01-02T17:36:00.412Z,96.69
2023-01-02T17:38:27.807Z,96.72
2023-01-02T17:40:58.976Z,95.92
2023-01-02T17:43:26.573Z,95.94
2023-01-02T17:45:54.022Z,97.63
2023-01-02T17:48:24.533Z,97.96
2023-01-02T17:50:53.368Z,97.74
2023-01-02T17:53:21.080Z,98.17
2023-01-02T17:56:20.501Z,98.83
2023-01-02T17:58:43.866Z,99.13
2023-01-02T18:01:19.124Z,98.38
2023-01-02T18:03:47.029Z,98.90
2023-01-02T18:06:15.479Z,98.25
2023-01-02T18:08:43.032Z,97.14
2023-01-02T18:11:14.177Z,97.22
2023-01-02T18:13:50.715Z,95.30
2023-01-02T18:16:26.917Z,94.62
2023-01-02T18:18:54.343Z,95.70
2023-01-02T18:21:26.013Z,98.00
2023-01-02T18:23:57.324Z,98.64
2023-01-02T18:26:25.688Z,97.85
2023-01-02T18:29:05.624Z,97.63
2023-01-02T18:31:45.085Z,98.10
2023-01-02T18:34:47.132Z,98.36
2023-01-02T18:37:29.140Z,99.63
2023-01-02T18:39:57.361Z,99.59
2023-01-02T18:42:32.214Z,99.36
2023-01-02T18:45:00.850Z,99.59
2023-01-02T18:47:29.410Z,99.36
2023-01-02T18:50:26.367Z,98.07
2023-01-02T18:52:53.660Z,98.71
2023-01-02T18:55:27.680Z,99.68
2023-01-02T18:57:59.725Z,99.90
2023-01-02T19:00:29.637Z,100.00
2023-01-02T19:03:01.804Z,100.00
2023-01-02T19:05:35.308Z,100.00
2023-01-02T19:08:13.317Z,100.00
2023-01-02T19:10:43.617Z,99.70
2023-01-02T19:13:17.373Z,100.00
2023-01-02T19:15:47.857Z,100.00
2023-01-02T19:18:15.175Z,97.08
2023-01-02T19:20:44.152Z,97.97
2023-01-02T19:23:36.694Z,98.72
2023-01-02T19:26:22.820Z,98.23
2023-01-02T19:29:23.553Z,99.41
2023-01-02T19:32:23.149Z,99.23
2023-01-02T19:34:52.861Z,97.82
2023-01-02T19:37:26.111Z,96.48
2023-01-02T19:39:55.796Z,97.59
2023-01-02T19:42:28.316Z,97.70
2023-01-02T19:45:01.373Z,97.98
2023-01-02T19:47:31.460Z,98.29
2023-01-02T19:49:59.733Z,98.13
2023-01-02T19:52:29.239Z,98.26
2023-01-02T19:54:57.606Z,98.18
2023-01-02T19:57:25.943Z,98.44
2023-01-02T19:59:55.881Z,97.03
2023-01-02T20:02:24.176Z,97.18
2023-01-02T20:04:53.784Z,98.07
2023-01-02T20:07:23.132Z,98.60
2023-01-02T20:09:50.787Z,96.41
2023-01-02T20:12:30.427Z,98.10
2023-01-02T20:15:02.891Z,98.71
2023-01-02T20:17:30.443Z,98.53
2023-01-02T20:19:58.513Z,99.13
2023-01-02T20:22:27.212Z,97.49
2023-01-02T20:24:55.494Z,96.00
2023-01-02T20:27:22.813Z,95.76
2023-01-02T20:29:51.079Z,96.45
2023-01-02T20:32:19.128Z,97.80
2023-01-02T20:34:46.338Z,95.65
2023-01-02T20:37:13.825Z,96.53
2023-01-02T20:39:41.201Z,98.17
2023-01-02T20:42:13.478Z,97.81
2023-01-02T20:44:41.608Z,97.29
2023-01-02T20:47:09.126Z,99.45
2023-01-02T20:49:36.386Z,99.33
2023-01-02T20:52:04.132Z,98.69
2023-01-02T20:54:31.411Z,97.42
2023-01-02T20:56:58.715Z,98.31
2023-01-02T20:59:26.349Z,99.58
2023-01-02T21:01:53.775Z,100.00
2023-01-02T21:04:27.785Z,99.94
2023-01-02T21:06:58.077Z,99.96
2023-01-02T21:09:25.308Z,99.56
2023-01-02T21:11:53.017Z,99.39
2023-01-02T21:14:20.286Z,98.89
2023-01-02T21:16:47.565Z,99.28
2023-01-02T21:19:15.163Z,100.00
2023-01-02T21:21:42.421Z,100.00
2023-01-02T21:24:09.667Z,100.00
2023-01-02T21:26:36.936Z,100.00
2023-01-02T21:29:04.358Z,99.97
2023-01-02T21:31:31.657Z,99.53
2023-01-02T21:33:58.951Z,100.00
2023-01-02T21:36:26.238Z,100.00
2023-01-02T21:38:53.556Z,100.00
2023-01-02T21:41:39.369Z,100.00
2023-01-02T21:44:06.709Z,100.00
2023-01-02T21:46:34.015Z,100.00
2023-01-02T21:49:01.325Z,100.00
2023-01-02T21:51:32.732Z,100.00
2023-01-02T21:54:00.488Z,100.00
2023-01-02T21:56:27.769Z,100.00
2023-01-02T21:58:55.711Z,99.46
2023-01-02T22:01:23.167Z,99.46
2023-01-02T22:03:50.529Z,97.91
2023-01-02T22:06:18.469Z,99.52
2023-01-02T22:08:45.724Z,99.29
2023-01-02T22:11:31.209Z,99.64
2023-01-02T22:13:58.412Z,98.81
2023-01-02T22:16:25.790Z,99.80
2023-01-02T22:18:53.085Z,100.00
2023-01-02T22:21:20.297Z,98.96
2023-01-02T22:23:47.565Z,99.71
2023-01-02T22:26:14.807Z,99.90
2023-01-02T22:28:43.434Z,99.70
2023-01-02T22:31:11.490Z,99.77
2023-01-02T22:33:39.218Z,99.28
2023-01-02T22:36:07.222Z,99.27
2023-01-02T22:38:37.443Z,99.70
2023-01-02T22:41:11.152Z,99.63
2023-01-02T22:43:41.519Z,99.90
2023-01-02T22:46:16.415Z,99.95
2023-01-02T22:48:44.525Z,100.00
2023-01-02T22:51:13.982Z,99.67
2023-01-02T22:53:41.475Z,99.68
2023-01-02T22:56:17.797Z,97.94
2023-01-02T22:58:46.593Z,96.13
2023-01-02T23:01:19.063Z,97.96
2023-01-02T23:03:47.779Z,97.75
2023-01-02T23:06:21.726Z,98.86
2023-01-02T23:08:50.470Z,99.21
2023-01-02T23:11:18.405Z,99.07
2023-01-02T23:13:49.062Z,98.22
2023-01-02T23:16:38.842Z,97.56
2023-01-02T23:19:15.203Z,97.45
2023-01-02T23:21:45.889Z,97.20
2023-01-02T23:24:15.902Z,96.67
2023-01-02T23:26:49.313Z,96.48
2023-01-02T23:29:17.836Z,96.39
2023-01-02T23:31:47.868Z,96.45
2023-01-02T23:34:18.241Z,95.75
2023-01-02T23:36:46.113Z,95.11
2023-01-02T23:39:15.307Z,95.16
2023-01-02T23:41:43.746Z,94.48
2023-01-02T23:44:12.430Z,93.79
2023-01-02T23:46:40.297Z,92.90
2023-01-02T23:49:08.743Z,92.58
2023-01-02T23:51:36.984Z,92.43
2023-01-02T23:54:04.877Z,92.25
2023-01-02T23:56:34.769Z,92.01
2023-01-02T23:59:02.848Z,91.64
